Time;durP1;ratioP1;P1;durP2;ratioP2;P2;SDS_P1;SDS_P2;PMS_P1;PMS_P2;Temp;Humidity;BMP_temperature;BMP_pressure;BME280_temperature;BME280_humidity;BME280_pressure;Samples;Min_cycle;Max_cycle;Signal;HPM_P1;HPM_P2
2021/11/30 00:01:59;;;;;;;22.40;13.10;;;;;;;2.81;67.98;97732.41;212222;1328;139933;-60
2021/11/30 00:07:03;;;;;;;25.90;15.20;;;;;;;2.79;68.08;97729.36;212906;1324;139867;-58
2021/11/30 00:12:11;;;;;;;24.40;13.60;;;;;;;2.82;68.28;97731.85;212580;1322;140384;-62
2021/11/30 00:17:15;;;;;;;25.20;15.40;;;;;;;2.78;68.17;97734.80;212176;1326;139175;-58
2021/11/30 00:22:21;;;;;;;29.20;17.00;;;;;;;2.75;68.31;97739.02;212126;1331;139795;-59
2021/11/30 00:27:25;;;;;;;;;;;;;;;2.73;68.43;97744.88;212227;1328;139705;-59
2021/11/30 00:32:28;;;;;;;29.00;16.60;;;;;;;2.72;68.56;97754.27;212142;1328;125661;-60
2021/11/30 00:37:31;;;;;;;29.80;16.20;;;;;;;2.75;68.79;97759.51;212787;1321;140515;-63
2021/11/30 00:42:35;;;;;;;29.40;17.10;;;;;;;2.77;68.75;97774.84;212220;1329;139567;-60
2021/11/30 00:47:45;;;;;;;26.30;15.30;;;;;;;2.78;68.75;97786.86;212046;1326;139183;-61
2021/11/30 00:52:49;;;;;;;26.20;15.40;;;;;;;2.77;68.71;97792.85;211956;1324;139588;-62
2021/11/30 00:57:52;;;;;;;25.50;15.20;;;;;;;2.74;68.86;97801.92;212522;1326;139061;-60
2021/11/30 01:02:55;;;;;;;26.60;14.50;;;;;;;2.73;69.01;97812.30;211979;1329;139474;-62
2021/11/30 01:07:59;;;;;;;25.40;13.60;;;;;;;2.71;68.96;97821.69;212172;1328;139167;-61
2021/11/30 01:13:04;;;;;;;21.80;13.90;;;;;;;2.71;69.15;97830.11;211809;1331;139101;-61
2021/11/30 01:18:07;;;;;;;20.90;12.60;;;;;;;2.77;69.32;97833.63;212478;1328;139388;-60
2021/11/30 01:23:10;;;;;;;20.20;12.70;;;;;;;2.79;69.35;97839.14;212406;1327;139628;-58
2021/11/30 01:28:13;;;;;;;23.20;12.90;;;;;;;2.76;69.30;97847.20;212276;1329;140322;-59
2021/11/30 01:33:16;;;;;;;21.50;12.30;;;;;;;2.71;69.34;97856.91;212445;1325;139744;-62
2021/11/30 01:38:19;;;;;;;21.10;12.20;;;;;;;2.68;69.43;97858.29;212263;1325;139405;-61
2021/11/30 01:43:25;;;;;;;18.70;12.10;;;;;;;2.69;69.65;97863.45;212262;1327;140009;-62
2021/11/30 01:53:51;;;;;;;17.20;11.00;;;;;;;2.77;69.65;97860.61;212059;1331;140082;-61
2021/11/30 01:58:55;;;;;;;16.20;10.30;;;;;;;2.79;69.80;97861.92;212314;1325;139150;-61
2021/11/30 02:03:59;;;;;;;18.70;11.10;;;;;;;2.79;69.86;97871.92;212447;1324;139115;-62
2021/11/30 02:09:03;;;;;;;15.80;10.60;;;;;;;2.77;69.88;97877.30;212072;1322;139310;-62
2021/11/30 02:14:06;;;;;;;15.90;9.90;;;;;;;2.76;69.81;97875.41;211973;1331;139796;-63
2021/11/30 02:19:09;;;;;;;15.70;10.20;;;;;;;2.76;70.03;97879.39;212099;1323;139668;-61
2021/11/30 02:24:13;;;;;;;16.20;10.30;;;;;;;2.79;70.19;97883.80;211773;1331;140919;-60
2021/11/30 02:29:16;;;;;;;13.40;9.60;;;;;;;2.82;70.25;97887.31;212807;1323;139089;-61
2021/11/30 02:34:19;;;;;;;14.30;10.10;;;;;;;2.81;69.89;97882.70;212439;1329;139765;-60
2021/11/30 02:39:24;;;;;;;13.70;9.90;;;;;;;2.79;69.94;97890.99;212329;1323;140149;-60
2021/11/30 02:44:28;;;;;;;14.10;9.30;;;;;;;2.84;70.25;97893.91;212490;1328;139085;-60
2021/11/30 02:49:36;;;;;;;13.10;9.30;;;;;;;2.87;70.06;97894.10;212071;1331;139828;-60
2021/11/30 02:54:43;;;;;;;13.40;8.10;;;;;;;2.95;70.08;97899.32;212178;1323;139759;-63
2021/11/30 02:59:49;;;;;;;12.40;7.70;;;;;;;3.01;69.84;97895.84;211775;1331;141204;-59
2021/11/30 03:04:54;;;;;;;10.60;7.90;;;;;;;3.04;69.68;97891.82;212470;1326;139396;-60
2021/11/30 03:09:58;;;;;;;13.30;8.80;;;;;;;3.01;69.79;97894.81;211963;1324;139448;-60
2021/11/30 03:15:19;;;;;;;14.80;9.70;;;;;;;2.97;69.68;97900.82;211943;1328;198501;-64
2021/11/30 03:20:22;;;;;;;18.40;11.10;;;;;;;2.92;69.79;97898.06;212866;1322;139327;-64
2021/11/30 03:25:25;;;;;;;17.90;11.50;;;;;;;2.88;69.65;97899.33;212900;1321;139933;-60
2021/11/30 03:30:28;;;;;;;19.70;12.30;;;;;;;2.84;69.72;97906.84;212226;1317;139436;-60
2021/11/30 03:35:32;;;;;;;19.70;13.50;;;;;;;2.82;69.93;97902.59;212534;1323;139884;-58
2021/11/30 03:40:35;;;;;;;20.40;12.90;;;;;;;2.77;69.86;97904.25;212107;1323;139308;-60
2021/11/30 03:45:38;;;;;;;15.20;10.60;;;;;;;2.75;69.90;97900.67;212748;1322;143081;-59
2021/11/30 03:50:41;;;;;;;17.70;11.70;;;;;;;2.74;69.93;97901.22;212138;1328;139226;-60
2021/11/30 03:55:44;;;;;;;20.20;11.70;;;;;;;2.66;69.94;97904.77;212094;1328;139235;-61
2021/11/30 04:00:47;;;;;;;16.30;11.10;;;;;;;2.65;69.91;97908.17;211956;1329;139680;-59
2021/11/30 04:05:50;;;;;;;18.10;11.30;;;;;;;2.67;70.15;97906.33;211826;1331;229677;-59
2021/11/30 04:10:53;;;;;;;18.10;11.90;;;;;;;2.67;70.03;97910.69;212266;1328;139963;-63
2021/11/30 04:15:56;;;;;;;17.70;10.80;;;;;;;2.70;70.10;97910.70;211998;1330;140690;-60
2021/11/30 04:21:00;;;;;;;18.30;11.80;;;;;;;2.72;70.12;97915.86;212423;1325;139788;-62
2021/11/30 04:26:03;;;;;;;15.80;9.90;;;;;;;2.78;70.20;97923.27;212314;1322;140520;-60
2021/11/30 04:31:06;;;;;;;15.60;10.50;;;;;;;2.76;70.12;97917.94;212627;1327;139613;-61
2021/11/30 04:36:09;;;;;;;14.20;9.20;;;;;;;2.80;70.09;97921.92;213120;1321;141760;-58
2021/11/30 04:41:12;;;;;;;63.20;40.80;;;;;;;2.88;70.28;97914.92;212662;1322;139955;-62
2021/11/30 04:46:23;;;;;;;17.70;11.90;;;;;;;3.13;70.73;97908.25;212519;1325;140139;-61
2021/11/30 04:51:30;;;;;;;15.50;10.60;;;;;;;3.21;70.05;97913.95;212101;1323;139215;-59
2021/11/30 04:56:33;;;;;;;12.30;8.70;;;;;;;3.15;69.56;97914.09;212441;1328;139281;-60
2021/11/30 05:01:37;;;;;;;14.90;8.80;;;;;;;3.04;69.51;97923.91;212106;1329;139048;-61
2021/11/30 05:06:41;;;;;;;16.10;9.70;;;;;;;2.96;69.50;97922.96;211751;1328;140473;-58
2021/11/30 05:11:44;;;;;;;15.90;11.10;;;;;;;2.89;69.61;97925.00;212191;1329;140148;-57
2021/11/30 05:16:47;;;;;;;179.50;99.90;;;;;;;2.90;69.89;97923.05;212320;1326;140371;-59
2021/11/30 05:21:51;;;;;;;18.30;12.80;;;;;;;3.06;70.07;97916.63;211870;1329;139950;-66
2021/11/30 05:26:56;;;;;;;14.70;10.40;;;;;;;3.08;69.63;97920.02;212269;1323;140428;-61
2021/11/30 05:31:59;;;;;;;11.70;8.70;;;;;;;3.05;69.38;97925.82;212021;1331;139342;-59
2021/11/30 05:37:03;;;;;;;11.40;7.90;;;;;;;3.01;69.20;97927.41;212247;1331;139519;-61
2021/11/30 05:42:07;;;;;;;10.30;7.40;;;;;;;3.02;69.13;97934.71;212268;1326;140944;-61
2021/11/30 05:47:10;;;;;;;10.90;7.80;;;;;;;3.03;68.97;97938.15;212453;1325;139842;-59
2021/11/30 05:52:13;;;;;;;10.10;6.90;;;;;;;3.05;68.77;97936.48;212833;1322;140630;-65
2021/11/30 05:57:22;;;;;;;9.50;6.80;;;;;;;3.02;68.52;97937.67;212172;1323;139315;-59
2021/11/30 06:02:25;;;;;;;10.70;7.10;;;;;;;2.93;68.34;97946.89;212327;1329;139389;-63
2021/11/30 06:07:28;;;;;;;9.10;6.70;;;;;;;2.87;68.35;97956.81;212453;1326;139447;-62
2021/11/30 06:12:31;;;;;;;12.50;9.00;;;;;;;2.82;68.13;97949.68;212391;1328;138639;-58
2021/11/30 06:17:34;;;;;;;14.90;10.20;;;;;;;2.81;68.41;97938.73;212057;1319;139851;-61
2021/11/30 06:22:39;;;;;;;16.80;11.30;;;;;;;2.80;68.49;97933.86;212301;1325;140301;-57
2021/11/30 06:27:42;;;;;;;14.60;10.50;;;;;;;2.80;68.65;97930.36;212552;1322;139155;-57
2021/11/30 06:32:46;;;;;;;13.80;9.60;;;;;;;2.78;68.98;97933.45;212016;1326;139636;-60
2021/11/30 06:37:49;;;;;;;14.00;9.50;;;;;;;2.75;68.94;97936.55;212128;1322;139513;-61
2021/11/30 06:42:52;;;;;;;15.20;10.20;;;;;;;2.75;68.99;97926.92;211907;1325;140184;-59
2021/11/30 06:47:55;;;;;;;15.40;10.60;;;;;;;2.80;69.09;97928.44;212130;1329;140101;-60
2021/11/30 06:52:58;;;;;;;13.70;9.80;;;;;;;2.81;69.15;97939.94;212057;1330;138793;-59
2021/11/30 06:58:01;;;;;;;15.00;10.10;;;;;;;2.79;69.02;97945.98;212467;1326;139836;-60
2021/11/30 07:03:05;;;;;;;14.60;9.70;;;;;;;2.79;69.22;97933.55;212662;1325;140686;-61
2021/11/30 07:08:23;;;;;;;13.10;9.60;;;;;;;2.78;68.96;97944.29;212458;1328;139078;-65
2021/11/30 07:13:28;;;;;;;13.50;9.60;;;;;;;2.76;68.93;97939.85;212230;1324;139512;-59
2021/11/30 07:18:33;;;;;;;13.10;9.50;;;;;;;2.75;68.94;97943.73;212257;1325;139859;-67
2021/11/30 07:23:36;;;;;;;13.60;10.30;;;;;;;2.79;69.16;97943.00;212330;1322;139616;-60
2021/11/30 07:28:39;;;;;;;13.60;9.60;;;;;;;2.79;69.06;97941.98;212739;1324;140313;-62
2021/11/30 07:33:46;;;;;;;16.00;8.90;;;;;;;2.83;69.20;97938.96;213036;1322;139994;-60
2021/11/30 07:38:49;;;;;;;14.60;8.70;;;;;;;2.82;68.98;97937.79;212172;1322;139815;-59
2021/11/30 07:43:52;;;;;;;13.30;7.70;;;;;;;2.82;68.85;97938.34;212531;1325;140768;-62
2021/11/30 07:48:55;;;;;;;11.80;8.90;;;;;;;2.79;68.85;97928.66;212445;1323;140351;-62
2021/11/30 07:53:59;;;;;;;12.10;7.40;;;;;;;2.77;69.14;97926.11;212422;1316;139033;-58
2021/11/30 07:59:02;;;;;;;15.00;9.30;;;;;;;2.79;69.22;97925.66;212442;1329;139421;-57
2021/11/30 08:04:07;;;;;;;14.50;8.90;;;;;;;2.78;69.30;97920.30;212415;1325;138977;-62
2021/11/30 08:09:10;;;;;;;14.10;8.80;;;;;;;2.74;69.22;97921.21;212281;1322;139897;-59
2021/11/30 08:14:16;;;;;;;14.30;9.50;;;;;;;2.73;69.38;97914.73;212616;1323;140351;-61
2021/11/30 08:19:20;;;;;;;;;;;;;;;2.70;69.42;97909.81;212136;1328;139433;-62
2021/11/30 08:24:24;;;;;;;12.80;9.00;;;;;;;2.67;69.54;97906.67;212120;1325;125530;-59
2021/11/30 08:29:28;;;;;;;15.60;9.60;;;;;;;2.66;69.68;97897.77;212247;1329;139219;-57
2021/11/30 08:34:31;;;;;;;15.00;9.30;;;;;;;2.62;69.65;97894.98;212775;1323;139537;-61
2021/11/30 08:39:34;;;;;;;13.00;8.20;;;;;;;2.61;69.74;97887.69;212126;1326;139734;-59
2021/11/30 08:44:37;;;;;;;15.10;8.80;;;;;;;2.66;69.88;97884.12;212480;1322;139804;-60
2021/11/30 08:49:41;;;;;;;14.50;9.40;;;;;;;2.71;70.09;97879.15;211948;1326;139747;-60
2021/11/30 08:54:47;;;;;;;15.80;9.80;;;;;;;2.78;70.11;97873.89;212054;1323;139799;-61
2021/11/30 08:59:51;;;;;;;14.80;9.60;;;;;;;2.78;70.05;97866.15;211784;1331;139553;-62
2021/11/30 09:04:54;;;;;;;14.10;9.20;;;;;;;2.82;70.30;97860.55;212790;1322;139109;-60
2021/11/30 09:09:57;;;;;;;17.10;10.60;;;;;;;2.82;70.30;97855.48;212917;1322;139994;-59
2021/11/30 09:15:01;;;;;;;15.00;10.70;;;;;;;2.88;70.30;97843.96;211959;1329;142992;-63
2021/11/30 09:20:24;;;;;;;16.90;10.40;;;;;;;2.89;70.38;97830.59;212151;1328;140184;-60
2021/11/30 09:25:27;;;;;;;14.70;9.20;;;;;;;2.93;70.42;97823.73;212566;1326;139852;-59
2021/11/30 09:30:34;;;;;;;12.50;8.70;;;;;;;3.02;70.56;97811.20;212041;1329;139127;-58
2021/11/30 09:35:37;;;;;;;10.00;6.30;;;;;;;3.12;70.10;97798.77;211924;1325;143064;-62
2021/11/30 09:40:41;;;;;;;9.60;6.30;;;;;;;3.17;70.03;97791.33;212001;1328;140244;-58
2021/11/30 09:46:03;;;;;;;8.20;5.80;;;;;;;3.24;69.80;97783.04;212287;1326;139155;-66
2021/11/30 09:51:07;;;;;;;8.90;5.80;;;;;;;3.29;69.48;97769.82;212187;1323;139337;-64
2021/11/30 09:56:09;;;;;;;10.10;6.00;;;;;;;3.26;69.14;97754.21;213137;1322;139344;-61
2021/11/30 10:01:13;;;;;;;10.00;5.60;;;;;;;3.25;69.18;97740.93;212213;1325;139673;-64
2021/11/30 10:06:17;;;;;;;8.10;6.10;;;;;;;3.30;68.96;97726.48;212202;1326;139624;-62
2021/11/30 10:11:31;;;;;;;9.90;5.60;;;;;;;3.31;68.84;97717.45;212727;1324;139450;-59
2021/11/30 10:16:34;;;;;;;8.00;5.00;;;;;;;3.31;68.68;97702.09;212121;1326;138610;-62
2021/11/30 10:21:38;;;;;;;7.10;4.70;;;;;;;3.42;68.70;97681.84;211848;1330;142058;-69
2021/11/30 10:26:46;;;;;;;7.30;5.40;;;;;;;3.54;68.38;97675.55;211979;1329;139825;-59
2021/11/30 10:31:52;;;;;;;6.10;4.50;;;;;;;3.67;68.13;97652.02;211872;1328;139128;-58
2021/11/30 10:37:05;;;;;;;7.50;5.40;;;;;;;3.76;67.89;97654.48;211813;1328;139775;-62
2021/11/30 10:42:21;;;;;;;7.90;5.50;;;;;;;3.74;67.46;97643.74;212634;1331;139569;-59
2021/11/30 10:47:31;;;;;;;7.00;5.10;;;;;;;3.73;67.15;97646.06;212402;1322;139697;-58
2021/11/30 10:52:35;;;;;;;5.60;4.40;;;;;;;3.67;66.63;97629.91;212756;1321;139662;-57
2021/11/30 10:57:38;;;;;;;6.40;5.00;;;;;;;3.64;66.51;97605.91;212814;1322;138928;-61
2021/11/30 11:03:00;;;;;;;7.60;4.70;;;;;;;3.68;66.55;97586.91;212480;1322;139457;-60
2021/11/30 11:08:14;;;;;;;6.40;4.40;;;;;;;3.77;66.24;97572.72;212629;1323;140343;-59
2021/11/30 11:13:23;;;;;;;6.40;3.80;;;;;;;3.89;66.12;97559.57;212267;1322;242118;-60
2021/11/30 11:18:41;;;;;;;7.80;4.10;;;;;;;4.02;65.87;97543.15;212409;1322;138324;-58
2021/11/30 11:24:02;;;;;;;6.50;3.70;;;;;;;4.14;65.51;97523.49;212791;1323;138976;-60
2021/11/30 11:29:13;;;;;;;8.90;3.90;;;;;;;4.24;64.98;97511.80;212725;1322;139120;-57
2021/11/30 11:34:19;;;;;;;5.30;3.40;;;;;;;4.28;64.76;97499.13;212597;1323;139437;-64
2021/11/30 11:39:24;;;;;;;5.40;3.10;;;;;;;4.32;64.43;97487.66;212033;1321;140020;-61
2021/11/30 11:44:28;;;;;;;4.60;3.00;;;;;;;4.35;63.87;97471.80;212384;1325;139004;-60
2021/11/30 11:49:41;;;;;;;16.50;10.50;;;;;;;4.38;63.98;97447.05;212255;1328;139135;-62
2021/11/30 11:54:57;;;;;;;144.30;87.60;;;;;;;4.60;64.26;97425.10;212022;1326;139339;-57
2021/11/30 12:00:18;;;;;;;;;;;;;;;4.76;63.44;97411.48;212179;1325;139389;-60
2021/11/30 12:05:40;;;;;;;3.70;2.30;;;;;;;4.73;62.62;97396.89;212460;1325;126962;-55
2021/11/30 12:10:43;;;;;;;7.10;2.70;;;;;;;4.59;61.92;97385.86;212253;1325;140961;-60
2021/11/30 12:16:06;;;;;;;4.70;3.00;;;;;;;4.47;62.14;97371.52;212630;1324;138960;-57
2021/11/30 12:21:23;;;;;;;8.50;3.60;;;;;;;4.31;62.00;97367.45;213706;1321;139237;-65
2021/11/30 12:26:30;;;;;;;6.00;3.10;;;;;;;4.12;62.15;97347.24;213703;1322;139021;-60
2021/11/30 12:31:36;;;;;;;5.80;2.90;;;;;;;4.00;62.51;97333.23;212718;1325;139480;-57
2021/11/30 12:36:42;;;;;;;84.40;54.40;;;;;;;3.98;63.03;97325.63;212299;1324;141095;-56
2021/11/30 12:41:49;;;;;;;5.80;3.60;;;;;;;4.02;63.34;97318.05;212064;1325;139595;-56
2021/11/30 12:46:56;;;;;;;5.50;3.60;;;;;;;3.84;63.47;97296.22;212251;1325;138945;-58
2021/11/30 12:52:14;;;;;;;5.50;3.40;;;;;;;3.60;63.82;97286.64;211842;1331;140050;-60
2021/11/30 12:57:39;;;;;;;4.70;3.50;;;;;;;3.50;64.22;97273.23;212236;1325;140946;-58
2021/11/30 13:02:46;;;;;;;6.60;3.60;;;;;;;3.45;64.67;97259.36;212508;1322;138759;-57
2021/11/30 13:07:50;;;;;;;7.00;4.00;;;;;;;3.47;64.76;97253.29;212366;1324;139926;-54
2021/11/30 13:12:59;;;;;;;5.10;3.30;;;;;;;3.48;64.68;97248.80;212490;1325;138955;-58
2021/11/30 13:18:05;;;;;;;5.30;3.80;;;;;;;3.48;64.84;97247.95;212490;1323;139192;-57
2021/11/30 13:23:08;;;;;;;6.40;3.10;;;;;;;3.46;64.68;97240.89;211563;1331;139798;-57
2021/11/30 13:28:28;;;;;;;5.90;4.20;;;;;;;3.46;64.66;97234.90;211982;1324;140337;-61
2021/11/30 13:33:32;;;;;;;8.10;4.30;;;;;;;3.55;65.24;97212.66;212306;1324;139718;-57
2021/11/30 13:38:42;;;;;;;5.20;3.40;;;;;;;3.64;65.02;97203.66;212407;1325;140118;-60
2021/11/30 13:43:51;;;;;;;7.00;3.80;;;;;;;3.66;64.81;97203.33;212087;1334;139564;-60
2021/11/30 13:48:59;;;;;;;4.20;3.00;;;;;;;3.69;64.60;97203.82;212930;1322;139746;-60
2021/11/30 13:54:09;;;;;;;5.70;3.00;;;;;;;3.65;64.61;97192.55;212413;1323;139250;-59
2021/11/30 13:59:39;;;;;;;4.40;2.90;;;;;;;3.61;64.60;97177.17;211807;1331;139323;-59
2021/11/30 14:05:00;;;;;;;4.70;2.80;;;;;;;3.57;64.74;97163.40;212265;1322;139999;-58
2021/11/30 14:10:26;;;;;;;4.20;2.80;;;;;;;3.52;64.75;97145.64;212670;1322;139526;-59
2021/11/30 14:15:29;;;;;;;5.00;2.70;;;;;;;3.50;64.71;97139.13;212053;1323;139175;-59
2021/11/30 14:20:32;;;;;;;5.80;2.80;;;;;;;3.50;64.98;97125.12;212167;1330;140444;-60
2021/11/30 14:25:35;;;;;;;6.00;2.90;;;;;;;3.52;65.08;97114.60;211889;1326;139541;-62
2021/11/30 14:30:40;;;;;;;5.90;2.90;;;;;;;3.55;64.98;97095.64;212290;1327;140273;-60
2021/11/30 14:35:46;;;;;;;4.20;2.60;;;;;;;3.53;65.12;97088.45;212335;1323;140014;-62
2021/11/30 14:40:52;;;;;;;3.80;2.40;;;;;;;3.46;65.06;97078.23;212105;1325;138826;-58
2021/11/30 14:45:55;;;;;;;44.90;29.10;;;;;;;3.41;64.88;97081.86;211746;1330;139579;-58
2021/11/30 14:51:01;;;;;;;4.80;2.80;;;;;;;3.47;65.84;97077.61;211933;1325;139584;-60
2021/11/30 14:56:15;;;;;;;3.90;2.40;;;;;;;3.47;65.49;97067.44;212315;1322;139148;-58
2021/11/30 15:01:42;;;;;;;4.60;2.70;;;;;;;3.33;65.46;97076.96;212368;1322;139777;-60
2021/11/30 15:06:48;;;;;;;19.00;11.40;;;;;;;3.12;66.13;97052.05;213046;1322;139664;-60
2021/11/30 15:12:00;;;;;;;4.10;2.50;;;;;;;3.05;66.62;97035.45;212868;1327;139944;-59
2021/11/30 15:17:09;;;;;;;4.40;2.90;;;;;;;2.96;66.85;97026.91;214203;1322;139967;-59
2021/11/30 15:22:17;;;;;;;5.00;3.00;;;;;;;3.25;68.56;97018.45;214120;1322;139915;-58
2021/11/30 15:27:31;;;;;;;4.10;3.00;;;;;;;3.14;67.35;97015.31;214644;1322;139371;-58
2021/11/30 15:32:35;;;;;;;6.00;3.40;;;;;;;3.01;67.36;97017.84;214477;1322;140267;-60
2021/11/30 15:37:40;;;;;;;8.00;4.20;;;;;;;2.91;67.61;97012.89;213644;1322;139853;-60
2021/11/30 15:42:44;;;;;;;7.80;4.90;;;;;;;2.80;67.83;97003.64;213584;1322;141345;-62
2021/11/30 15:47:47;;;;;;;6.80;4.40;;;;;;;2.70;68.18;97004.98;213258;1322;139161;-58
2021/11/30 15:52:50;;;;;;;12.50;7.50;;;;;;;2.69;68.73;97000.45;214466;1321;140026;-60
2021/11/30 15:57:53;;;;;;;6.90;3.60;;;;;;;2.86;69.09;96997.48;212946;1322;140739;-58
2021/11/30 16:02:56;;;;;;;5.40;3.40;;;;;;;2.78;68.74;96991.82;213442;1322;139289;-60
2021/11/30 16:08:00;;;;;;;5.70;3.10;;;;;;;2.70;69.05;96994.46;212661;1322;138540;-64
2021/11/30 16:13:03;;;;;;;5.70;3.40;;;;;;;2.66;69.20;96991.02;214156;1323;139446;-59
2021/11/30 16:18:07;;;;;;;5.00;3.00;;;;;;;2.67;69.44;96977.30;214162;1322;139570;-65
2021/11/30 16:23:10;;;;;;;8.60;2.50;;;;;;;2.75;69.69;96976.25;212779;1322;139241;-60
2021/11/30 16:28:13;;;;;;;2.90;1.60;;;;;;;2.86;69.86;96983.14;213073;1322;142510;-66
2021/11/30 16:33:20;;;;;;;4.40;1.70;;;;;;;2.97;69.80;96973.65;213311;1322;139426;-57
2021/11/30 16:38:23;;;;;;;2.90;1.70;;;;;;;3.03;69.71;96971.83;212872;1322;139806;-57
2021/11/30 16:43:30;;;;;;;2.80;1.50;;;;;;;3.05;69.77;96971.19;214332;1322;139998;-63
2021/11/30 16:48:33;;;;;;;3.70;2.10;;;;;;;3.10;69.95;96970.55;214085;1322;140787;-55
2021/11/30 16:53:37;;;;;;;7.00;1.80;;;;;;;3.16;69.85;96971.19;214009;1322;140536;-57
2021/11/30 16:58:40;;;;;;;3.60;1.70;;;;;;;3.21;69.62;96958.60;214179;1321;139609;-63
2021/11/30 17:03:43;;;;;;;262.70;167.40;;;;;;;3.28;69.98;96962.46;213534;1322;139631;-57
2021/11/30 17:08:46;;;;;;;5.20;2.90;;;;;;;3.46;70.02;96949.23;213538;1324;138940;-62
2021/11/30 17:13:50;;;;;;;4.10;1.90;;;;;;;3.46;69.40;96951.45;213801;1326;139834;-57
2021/11/30 17:18:53;;;;;;;3.10;1.80;;;;;;;3.46;69.49;96948.13;213460;1324;140082;-55
2021/11/30 17:23:59;;;;;;;3.50;1.70;;;;;;;3.48;69.31;96940.81;212675;1322;139578;-57
2021/11/30 17:29:21;;;;;;;4.10;1.80;;;;;;;3.52;69.16;96952.27;214379;1321;139964;-60
2021/11/30 17:34:24;;;;;;;3.10;1.80;;;;;;;3.57;69.12;96951.98;213707;1322;141101;-57
2021/11/30 17:39:28;;;;;;;145.50;82.10;;;;;;;3.64;69.19;96946.43;213881;1322;139193;-58
2021/11/30 17:44:31;;;;;;;5.90;2.50;;;;;;;3.80;69.18;96945.29;213432;1322;139733;-60
2021/11/30 17:49:34;;;;;;;5.30;2.20;;;;;;;3.85;68.68;96943.55;213814;1324;139440;-58
2021/11/30 17:54:37;;;;;;;4.40;1.60;;;;;;;3.80;68.76;96947.95;212965;1321;139569;-56
2021/11/30 17:59:40;;;;;;;3.40;1.80;;;;;;;3.75;68.72;96948.64;212308;1328;138857;-58
2021/11/30 18:04:43;;;;;;;3.10;1.80;;;;;;;3.72;69.06;96946.40;214107;1322;139099;-59
2021/11/30 18:09:48;;;;;;;4.10;1.70;;;;;;;3.89;69.18;96951.00;214589;1322;139769;-57
2021/11/30 18:14:51;;;;;;;3.90;1.90;;;;;;;3.84;68.70;96960.98;213543;1326;142091;-59
2021/11/30 18:19:55;;;;;;;3.40;2.00;;;;;;;3.76;68.74;96957.34;212607;1326;139971;-58
2021/11/30 18:24:58;;;;;;;4.30;2.20;;;;;;;3.72;68.95;96957.44;212376;1326;140948;-59
2021/11/30 18:30:02;;;;;;;3.00;1.60;;;;;;;3.75;69.30;96963.02;212540;1323;141114;-61
2021/11/30 18:35:06;;;;;;;3.10;1.90;;;;;;;3.77;69.33;96957.10;212460;1326;140304;-57
2021/11/30 18:40:10;;;;;;;5.90;2.20;;;;;;;3.75;69.04;96970.53;212281;1329;139195;-56
2021/11/30 18:45:13;;;;;;;3.00;1.80;;;;;;;3.81;69.09;96957.70;212716;1325;139926;-61
2021/11/30 18:50:16;;;;;;;2.40;1.60;;;;;;;3.84;68.93;96959.77;212149;1330;140743;-57
2021/11/30 18:55:19;;;;;;;5.50;2.10;;;;;;;3.81;68.87;96960.73;211931;1328;141982;-63
2021/11/30 19:00:22;;;;;;;3.90;1.90;;;;;;;3.78;69.03;96969.30;212264;1329;139481;-57
2021/11/30 19:05:25;;;;;;;3.70;1.90;;;;;;;3.82;68.96;96970.81;212166;1326;140461;-59
2021/11/30 19:10:28;;;;;;;11.50;5.70;;;;;;;3.87;69.33;96976.98;212543;1328;138634;-59
2021/11/30 19:15:32;;;;;;;4.40;2.00;;;;;;;3.94;69.46;96982.75;212315;1325;141419;-57
2021/11/30 19:20:35;;;;;;;5.50;2.20;;;;;;;3.89;69.48;96981.19;212505;1327;140091;-59
2021/11/30 19:25:38;;;;;;;4.40;2.30;;;;;;;3.83;69.28;96985.80;211868;1330;141354;-56
2021/11/30 19:30:42;;;;;;;3.50;1.70;;;;;;;3.79;69.41;96989.95;212016;1330;140124;-61
2021/11/30 19:35:45;;;;;;;3.80;1.70;;;;;;;3.75;69.70;96986.16;212545;1325;140399;-53
2021/11/30 19:40:49;;;;;;;3.00;1.80;;;;;;;3.72;70.01;96993.06;212857;1327;140074;-55
2021/11/30 19:45:54;;;;;;;2.80;1.50;;;;;;;3.74;70.13;97000.31;211808;1331;138763;-56
2021/11/30 19:50:57;;;;;;;2.60;1.50;;;;;;;3.77;69.98;97002.02;212558;1329;139793;-59
2021/11/30 19:56:00;;;;;;;3.60;1.70;;;;;;;3.79;69.86;97007.46;212912;1329;139386;-57
2021/11/30 20:06:07;;;;;;;2.60;1.40;;;;;;;3.81;69.75;97031.39;213307;1324;139241;-56
2021/11/30 20:11:10;;;;;;;3.90;2.00;;;;;;;3.83;69.75;97045.98;212265;1328;139247;-57
2021/11/30 20:16:14;;;;;;;3.10;2.10;;;;;;;3.80;69.97;97043.16;212209;1329;139383;-60
2021/11/30 20:21:17;;;;;;;3.40;1.90;;;;;;;3.76;69.97;97041.13;212161;1328;139481;-58
2021/11/30 20:26:20;;;;;;;4.00;2.30;;;;;;;3.75;70.12;97050.52;212603;1329;140412;-57
2021/11/30 20:31:24;;;;;;;6.00;2.40;;;;;;;3.68;70.16;97045.90;212516;1328;138707;-61
2021/11/30 20:41:49;;;;;;;4.00;2.10;;;;;;;3.54;70.59;97048.08;212303;1328;139561;-59
2021/11/30 20:46:52;;;;;;;4.50;2.30;;;;;;;3.47;70.67;97054.27;212050;1330;139608;-59
2021/11/30 20:51:56;;;;;;;4.60;2.00;;;;;;;3.45;70.94;97059.20;212454;1323;139205;-59
2021/11/30 20:56:59;;;;;;;4.50;2.20;;;;;;;3.43;71.04;97065.27;212931;1323;139187;-59
2021/11/30 21:07:26;;;;;;;5.50;2.50;;;;;;;3.42;71.30;97066.75;212049;1327;139363;-62
2021/11/30 21:12:30;;;;;;;4.90;2.50;;;;;;;3.43;71.53;97073.16;212386;1324;138939;-60
2021/11/30 21:17:37;;;;;;;6.40;2.60;;;;;;;3.46;71.74;97082.08;212487;1326;140310;-60
2021/11/30 21:22:45;;;;;;;6.00;2.50;;;;;;;3.48;71.69;97085.63;212499;1329;139204;-62
2021/11/30 21:27:50;;;;;;;4.90;2.20;;;;;;;3.47;71.61;97084.61;212362;1329;138723;-61
2021/11/30 21:32:54;;;;;;;7.40;2.40;;;;;;;3.46;71.61;97093.80;213379;1323;139232;-59
2021/11/30 21:37:57;;;;;;;6.80;2.60;;;;;;;3.45;71.66;97104.56;212024;1332;139340;-61
2021/11/30 21:43:03;;;;;;;5.30;2.60;;;;;;;3.49;71.77;97112.73;212022;1328;138914;-61
2021/11/30 21:48:08;;;;;;;7.70;3.00;;;;;;;3.54;71.94;97117.48;212688;1328;139537;-59
2021/11/30 21:53:14;;;;;;;7.90;2.50;;;;;;;3.59;71.79;97124.00;212562;1326;138810;-64
2021/11/30 21:58:20;;;;;;;7.40;2.50;;;;;;;3.64;71.68;97124.76;212284;1329;139325;-61
2021/11/30 22:03:23;;;;;;;7.40;2.60;;;;;;;3.71;71.73;97126.55;212420;1326;140100;-59
2021/11/30 22:08:26;;;;;;;5.60;2.50;;;;;;;3.78;71.73;97132.06;212821;1326;140273;-59
2021/11/30 22:13:30;;;;;;;4.20;2.10;;;;;;;3.83;71.73;97136.13;213168;1321;139057;-57
2021/11/30 22:18:34;;;;;;;5.60;2.20;;;;;;;3.91;71.45;97147.02;212422;1321;140734;-58
2021/11/30 22:23:37;;;;;;;5.10;2.10;;;;;;;3.97;71.21;97150.46;212316;1330;139870;-60
2021/11/30 22:28:41;;;;;;;6.10;1.90;;;;;;;4.04;71.28;97164.25;212246;1325;142154;-55
2021/11/30 22:33:44;;;;;;;5.40;2.10;;;;;;;4.04;70.95;97168.59;212279;1325;139444;-61
2021/11/30 22:38:47;;;;;;;6.60;2.40;;;;;;;4.05;70.89;97183.27;212169;1329;139322;-63
2021/11/30 22:43:51;;;;;;;7.40;2.40;;;;;;;4.09;70.84;97186.91;212124;1329;139311;-58
2021/11/30 22:48:55;;;;;;;4.20;2.00;;;;;;;4.15;70.92;97191.58;212564;1328;138795;-62
2021/11/30 22:53:58;;;;;;;7.20;3.10;;;;;;;4.18;70.78;97196.15;212174;1327;138921;-54
2021/11/30 22:59:02;;;;;;;5.10;1.70;;;;;;;4.19;70.35;97198.86;212863;1325;139263;-58
2021/11/30 23:04:05;;;;;;;6.50;2.50;;;;;;;4.19;70.31;97202.39;212523;1323;140344;-60
2021/11/30 23:09:08;;;;;;;6.10;2.20;;;;;;;4.18;70.24;97204.88;213131;1326;139024;-61
2021/11/30 23:14:13;;;;;;;4.10;2.10;;;;;;;4.18;70.22;97228.23;212855;1328;140036;-60
2021/11/30 23:19:16;;;;;;;6.00;2.50;;;;;;;4.18;70.19;97233.13;213053;1322;140109;-58
2021/11/30 23:24:21;;;;;;;8.30;2.40;;;;;;;4.20;70.01;97238.81;212521;1323;139483;-58
2021/11/30 23:29:24;;;;;;;5.40;2.30;;;;;;;4.20;70.07;97243.73;212135;1324;139014;-59
2021/11/30 23:34:28;;;;;;;7.20;2.80;;;;;;;4.22;69.73;97243.91;212191;1326;139872;-57
2021/11/30 23:39:31;;;;;;;5.90;2.80;;;;;;;4.27;69.77;97251.33;212143;1328;139089;-60
2021/11/30 23:44:34;;;;;;;7.30;2.50;;;;;;;4.29;69.71;97249.45;212632;1327;140317;-62
2021/11/30 23:49:37;;;;;;;7.50;3.00;;;;;;;4.31;69.54;97271.45;212230;1327;140673;-59